createdAt,value
2019-03-20T00:00:36.650Z,51.40
2019-03-20T00:03:05.184Z,51.50
2019-03-20T00:05:33.405Z,51.50
2019-03-20T00:08:01.641Z,52.30
2019-03-20T00:10:29.889Z,51.60
2019-03-20T00:12:58.129Z,51.70
2019-03-20T00:15:26.428Z,51.70
2019-03-20T00:17:54.680Z,51.80
2019-03-20T00:20:23.043Z,51.70
2019-03-20T00:22:51.278Z,51.80
2019-03-20T00:25:19.530Z,51.90
2019-03-20T00:27:49.558Z,51.80
2019-03-20T00:30:18.712Z,51.90
2019-03-20T00:32:47.452Z,51.90
2019-03-20T00:35:15.726Z,52.00
2019-03-20T00:37:43.961Z,52.00
2019-03-20T00:40:15.721Z,52.20
2019-03-20T00:42:43.950Z,52.20
2019-03-20T00:45:14.890Z,52.30
2019-03-20T00:47:43.805Z,52.20
2019-03-20T00:50:13.976Z,52.20
2019-03-20T00:52:42.236Z,52.30
2019-03-20T00:55:12.134Z,52.30
2019-03-20T00:57:40.613Z,52.50
2019-03-20T01:00:14.538Z,52.40
2019-03-20T01:02:42.814Z,52.50
2019-03-20T01:05:12.842Z,52.50
2019-03-20T01:07:41.006Z,52.60
2019-03-20T01:10:12.238Z,52.60
2019-03-20T01:12:40.470Z,52.70
2019-03-20T01:15:09.638Z,52.70
2019-03-20T01:17:37.894Z,52.70
2019-03-20T01:20:09.382Z,52.70
2019-03-20T01:22:37.617Z,52.70
2019-03-20T01:25:08.016Z,52.80
2019-03-20T01:27:36.241Z,52.80
2019-03-20T01:30:14.353Z,52.80
2019-03-20T01:32:42.586Z,53.10
2019-03-20T01:35:10.937Z,53.00
2019-03-20T01:37:39.187Z,52.90
2019-03-20T01:40:07.988Z,53.10
2019-03-20T01:42:36.214Z,53.10
2019-03-20T01:45:13.421Z,53.10
2019-03-20T01:47:41.703Z,53.00
2019-03-20T01:50:09.921Z,53.10
2019-03-20T01:52:38.173Z,53.10
2019-03-20T01:55:07.638Z,53.20
2019-03-20T01:57:37.495Z,53.80
2019-03-20T02:00:07.821Z,53.10
2019-03-20T02:02:36.055Z,53.20
2019-03-20T02:05:05.884Z,53.90
2019-03-20T02:07:34.222Z,53.20
2019-03-20T02:10:02.476Z,53.30
2019-03-20T02:12:30.700Z,53.30
2019-03-20T02:14:58.980Z,53.30
2019-03-20T02:17:27.205Z,53.30
2019-03-20T02:19:55.445Z,53.20
2019-03-20T02:22:23.678Z,53.40
2019-03-20T02:24:51.913Z,53.30
2019-03-20T02:27:20.146Z,53.30
2019-03-20T02:29:48.484Z,53.30
2019-03-20T02:32:16.717Z,53.40
2019-03-20T02:34:44.960Z,53.40
2019-03-20T02:37:13.216Z,53.60
2019-03-20T02:39:41.458Z,53.60
2019-03-20T02:42:09.699Z,53.50
2019-03-20T02:44:40.274Z,53.50
2019-03-20T02:47:08.510Z,53.50
2019-03-20T02:49:36.741Z,52.70
2019-03-20T02:52:05.430Z,52.70
2019-03-20T02:54:33.729Z,52.80
2019-03-20T02:57:01.982Z,52.70
2019-03-20T02:59:30.291Z,52.70
2019-03-20T03:01:59.075Z,52.70
2019-03-20T03:04:27.299Z,52.80
2019-03-20T03:06:55.560Z,52.80
2019-03-20T03:09:23.794Z,52.90
2019-03-20T03:11:53.676Z,52.90
2019-03-20T03:14:21.928Z,52.90
2019-03-20T03:16:50.167Z,52.80
2019-03-20T03:19:18.397Z,52.80
2019-03-20T03:21:46.934Z,52.80
2019-03-20T03:24:15.228Z,52.80
2019-03-20T03:26:43.459Z,53.00
2019-03-20T03:29:11.724Z,53.00
2019-03-20T03:31:39.958Z,52.90
2019-03-20T03:34:08.257Z,53.00
2019-03-20T03:36:36.494Z,53.10
2019-03-20T03:39:06.796Z,53.10
2019-03-20T03:41:35.034Z,52.80
2019-03-20T03:44:03.299Z,53.00
2019-03-20T03:46:31.542Z,53.00
2019-03-20T03:48:59.779Z,53.00
2019-03-20T03:51:28.040Z,52.90
2019-03-20T03:53:56.275Z,52.90
2019-03-20T03:56:24.508Z,53.00
2019-03-20T03:58:52.854Z,53.00
2019-03-20T04:01:21.143Z,53.10
2019-03-20T04:03:49.371Z,53.10
2019-03-20T04:06:17.622Z,53.10
2019-03-20T04:08:45.873Z,53.10
2019-03-20T04:11:14.106Z,53.20
2019-03-20T04:13:42.367Z,53.50
2019-03-20T04:16:10.598Z,53.30
2019-03-20T04:18:38.842Z,53.20
2019-03-20T04:21:07.091Z,53.90
2019-03-20T04:23:37.747Z,53.30
2019-03-20T04:26:05.982Z,53.30
2019-03-20T04:28:34.238Z,53.40
2019-03-20T04:31:02.473Z,53.50
2019-03-20T04:33:30.710Z,53.30
2019-03-20T04:35:58.992Z,53.40
2019-03-20T04:38:27.238Z,53.50
2019-03-20T04:40:55.470Z,53.50
2019-03-20T04:43:23.748Z,53.40
2019-03-20T04:45:52.214Z,53.50
2019-03-20T04:48:20.468Z,53.50
2019-03-20T04:50:48.759Z,54.10
2019-03-20T04:53:17.070Z,53.50
2019-03-20T04:55:45.315Z,53.60
2019-03-20T04:58:13.662Z,53.60
2019-03-20T05:00:41.950Z,53.60
2019-03-20T05:03:10.220Z,53.60
2019-03-20T05:05:38.566Z,53.60
2019-03-20T05:08:06.826Z,53.60
2019-03-20T05:10:35.071Z,53.60
2019-03-20T05:13:03.306Z,53.70
2019-03-20T05:15:31.553Z,53.80
2019-03-20T05:17:59.789Z,53.80
2019-03-20T05:20:28.052Z,53.80
2019-03-20T05:22:56.285Z,53.80
2019-03-20T05:25:24.528Z,53.90
2019-03-20T05:27:52.857Z,54.00
2019-03-20T05:30:21.098Z,54.00
2019-03-20T05:32:49.327Z,54.10
2019-03-20T05:35:17.601Z,54.10
2019-03-20T05:37:45.844Z,54.30
2019-03-20T05:40:17.906Z,54.20
2019-03-20T05:42:46.142Z,54.40
2019-03-20T05:45:20.534Z,54.40
2019-03-20T05:47:48.819Z,55.00
2019-03-20T05:50:17.697Z,54.50
2019-03-20T05:52:45.941Z,54.40
2019-03-20T05:55:14.182Z,54.50
2019-03-20T05:57:42.590Z,54.50
2019-03-20T06:00:19.735Z,54.60
2019-03-20T06:02:47.966Z,54.50
2019-03-20T06:05:16.305Z,54.50
2019-03-20T06:07:45.186Z,54.60
2019-03-20T06:10:14.687Z,54.60
2019-03-20T06:12:43.181Z,54.60
2019-03-20T06:15:11.518Z,54.70
2019-03-20T06:17:39.768Z,54.80
2019-03-20T06:20:10.830Z,55.50
2019-03-20T06:22:39.061Z,54.90
2019-03-20T06:25:09.037Z,54.80
2019-03-20T06:27:37.279Z,54.80
2019-03-20T06:30:11.507Z,55.00
2019-03-20T06:32:39.749Z,54.90
2019-03-20T06:35:08.759Z,54.90
2019-03-20T06:37:37.008Z,55.00
2019-03-20T06:40:07.836Z,55.00
2019-03-20T06:42:36.152Z,55.00
2019-03-20T06:45:10.881Z,55.10
2019-03-20T06:47:39.419Z,55.70
2019-03-20T06:50:13.336Z,55.20
2019-03-20T06:52:41.588Z,55.30
2019-03-20T06:55:10.395Z,55.30
2019-03-20T06:57:38.657Z,56.20
2019-03-20T07:00:42.227Z,55.50
2019-03-20T07:03:16.678Z,55.40
2019-03-20T07:06:07.441Z,55.20
2019-03-20T07:08:56.729Z,55.20
2019-03-20T07:11:24.112Z,55.30
2019-03-20T07:13:52.344Z,55.40
2019-03-20T07:16:21.351Z,55.50
2019-03-20T07:18:49.745Z,55.50
2019-03-20T07:21:18.847Z,55.50
2019-03-20T07:23:47.233Z,55.60
2019-03-20T07:26:15.472Z,55.60
2019-03-20T07:28:43.708Z,55.60
2019-03-20T07:31:15.600Z,55.60
2019-03-20T07:33:41.995Z,56.40
2019-03-20T07:36:10.244Z,55.80
2019-03-20T07:38:38.574Z,55.80
2019-03-20T07:41:06.813Z,55.80
2019-03-20T07:43:35.056Z,55.80
2019-03-20T07:46:03.313Z,55.70
2019-03-20T07:48:31.560Z,55.70
2019-03-20T07:50:59.795Z,55.90
2019-03-20T07:53:28.144Z,55.90
2019-03-20T07:55:56.358Z,56.00
2019-03-20T07:58:24.604Z,56.00
2019-03-20T08:00:54.085Z,56.10
2019-03-20T08:03:22.318Z,56.20
2019-03-20T08:05:50.562Z,56.10
2019-03-20T08:08:18.824Z,56.30
2019-03-20T08:10:47.085Z,56.20
2019-03-20T08:13:15.886Z,56.50
2019-03-20T08:15:44.140Z,56.40
2019-03-20T08:18:13.911Z,56.30
2019-03-20T08:20:42.214Z,56.40
2019-03-20T08:23:10.464Z,56.50
2019-03-20T08:25:38.712Z,56.40
2019-03-20T08:28:06.960Z,56.50
2019-03-20T08:30:35.219Z,56.40
2019-03-20T08:33:03.453Z,56.50
2019-03-20T08:35:31.688Z,56.50
2019-03-20T08:38:00.116Z,56.60
2019-03-20T08:40:28.348Z,56.70
2019-03-20T08:42:56.604Z,56.70
2019-03-20T08:45:24.845Z,56.80
2019-03-20T08:47:53.081Z,56.80
2019-03-20T08:50:25.177Z,56.90
2019-03-20T08:52:53.435Z,56.90
2019-03-20T08:55:23.397Z,56.90
2019-03-20T08:57:51.630Z,56.90
2019-03-20T09:00:23.995Z,57.10
2019-03-20T09:02:52.242Z,57.10
2019-03-20T09:05:20.491Z,57.20
2019-03-20T09:07:48.739Z,57.10
2019-03-20T09:10:20.289Z,57.20
2019-03-20T09:12:48.553Z,57.20
2019-03-20T09:15:17.619Z,57.20
2019-03-20T09:17:45.860Z,57.10
2019-03-20T09:20:20.611Z,57.30
2019-03-20T09:22:48.867Z,57.30
2019-03-20T09:25:20.732Z,57.30
2019-03-20T09:27:49.034Z,57.20
2019-03-20T09:30:21.519Z,57.20
2019-03-20T09:32:49.770Z,57.40
2019-03-20T09:35:18.096Z,57.40
2019-03-20T09:37:51.862Z,57.30
2019-03-20T09:40:24.911Z,57.50
2019-03-20T09:42:53.165Z,57.40
2019-03-20T09:45:22.371Z,57.10
2019-03-20T09:47:50.672Z,57.10
2019-03-20T09:50:24.037Z,56.90
2019-03-20T09:52:52.305Z,56.80
2019-03-20T09:55:20.551Z,56.70
2019-03-20T09:57:48.782Z,56.50
2019-03-20T10:00:25.121Z,56.40
2019-03-20T10:02:53.376Z,56.20
2019-03-20T10:05:21.612Z,56.60
2019-03-20T10:07:49.868Z,56.60
2019-03-20T10:10:33.298Z,56.40
2019-03-20T10:13:01.737Z,56.50
2019-03-20T10:15:31.427Z,56.50
2019-03-20T10:17:59.669Z,56.50
2019-03-20T10:20:27.932Z,56.40
2019-03-20T10:22:56.171Z,56.30
2019-03-20T10:25:24.464Z,56.10
2019-03-20T10:27:52.809Z,55.90
2019-03-20T10:30:22.546Z,55.80
2019-03-20T10:32:50.849Z,55.70
2019-03-20T10:35:19.110Z,55.70
2019-03-20T10:37:47.350Z,55.80
2019-03-20T10:40:17.728Z,55.70
2019-03-20T10:42:46.002Z,55.90
2019-03-20T10:45:15.358Z,55.80
2019-03-20T10:47:43.620Z,55.70
2019-03-20T10:50:22.890Z,55.70
2019-03-20T10:52:51.125Z,55.60
2019-03-20T10:55:19.373Z,55.60
2019-03-20T10:57:47.630Z,55.80
2019-03-20T11:00:18.284Z,55.90
2019-03-20T11:02:46.537Z,56.00
2019-03-20T11:05:14.953Z,56.00
2019-03-20T11:07:43.198Z,55.90
2019-03-20T11:10:22.433Z,55.90
2019-03-20T11:12:50.697Z,56.00
2019-03-20T11:15:21.451Z,55.80
2019-03-20T11:17:50.285Z,55.70
2019-03-20T11:20:22.202Z,55.70
2019-03-20T11:22:50.446Z,55.80
2019-03-20T11:25:22.758Z,55.90
2019-03-20T11:27:51.223Z,55.90
2019-03-20T11:30:21.009Z,55.90
2019-03-20T11:32:49.332Z,56.10
2019-03-20T11:35:17.603Z,56.10
2019-03-20T11:37:45.830Z,56.20
2019-03-20T11:40:28.768Z,56.30
2019-03-20T11:42:57.043Z,56.20
2019-03-20T11:45:25.291Z,56.00
2019-03-20T11:47:55.479Z,55.90
2019-03-20T11:50:31.809Z,55.90
2019-03-20T11:53:00.050Z,56.00
2019-03-20T11:55:28.309Z,56.10
2019-03-20T11:57:56.725Z,56.10
2019-03-20T12:00:25.037Z,56.10
2019-03-20T12:02:53.294Z,56.20
2019-03-20T12:05:21.544Z,56.00
2019-03-20T12:07:49.779Z,56.10
2019-03-20T12:10:27.151Z,56.10
2019-03-20T12:12:55.400Z,56.40
2019-03-20T12:15:23.638Z,56.20
2019-03-20T12:17:51.900Z,56.20
2019-03-20T12:20:21.369Z,56.40
2019-03-20T12:22:51.618Z,56.40
2019-03-20T12:25:22.207Z,56.50
2019-03-20T12:27:50.438Z,56.20
2019-03-20T12:30:20.819Z,56.10
2019-03-20T12:32:49.323Z,56.60
2019-03-20T12:35:20.246Z,55.90
2019-03-20T12:37:48.484Z,55.90
2019-03-20T12:40:22.033Z,55.90
2019-03-20T12:42:51.901Z,55.80
2019-03-20T12:45:35.689Z,56.00
2019-03-20T12:48:04.590Z,56.10
2019-03-20T12:50:32.857Z,55.90
2019-03-20T12:53:01.987Z,55.90
2019-03-20T12:55:31.226Z,55.70
2019-03-20T12:57:59.649Z,55.60
2019-03-20T13:00:28.336Z,55.80
2019-03-20T13:02:56.598Z,55.90
2019-03-20T13:05:26.113Z,55.80
2019-03-20T13:07:54.589Z,55.70
2019-03-20T13:10:26.875Z,55.70
2019-03-20T13:12:55.111Z,55.70
2019-03-20T13:15:26.993Z,55.60
2019-03-20T13:17:58.351Z,55.60
2019-03-20T13:20:27.603Z,55.50
2019-03-20T13:23:03.656Z,55.60
2019-03-20T13:25:32.002Z,55.60
2019-03-20T13:28:00.245Z,55.70
2019-03-20T13:30:43.930Z,55.50
2019-03-20T13:33:12.170Z,55.40
2019-03-20T13:35:40.485Z,55.50
2019-03-20T13:38:09.004Z,55.40
2019-03-20T13:40:37.374Z,55.60
2019-03-20T13:43:05.665Z,55.50
2019-03-20T13:45:33.923Z,55.40
2019-03-20T13:48:02.152Z,55.50
2019-03-20T13:50:30.697Z,55.50
2019-03-20T13:52:58.957Z,55.70
2019-03-20T13:55:27.198Z,55.60
2019-03-20T13:57:55.634Z,55.50
2019-03-20T14:00:26.284Z,55.40
2019-03-20T14:02:54.552Z,55.30
2019-03-20T14:05:22.921Z,55.30
2019-03-20T14:07:51.203Z,55.50
2019-03-20T14:10:25.125Z,55.50
2019-03-20T14:12:50.952Z,55.50
2019-03-20T14:15:22.104Z,55.40
2019-03-20T14:17:50.337Z,55.20
2019-03-20T14:20:26.696Z,55.10
2019-03-20T14:22:54.963Z,55.00
2019-03-20T14:25:23.197Z,55.10
2019-03-20T14:27:53.901Z,55.10
2019-03-20T14:30:32.861Z,55.20
2019-03-20T14:33:01.109Z,55.20
2019-03-20T14:35:29.350Z,55.20
2019-03-20T14:37:57.596Z,55.00
2019-03-20T14:40:35.270Z,55.20
2019-03-20T14:42:58.704Z,55.10
2019-03-20T14:45:27.057Z,55.10
2019-03-20T14:47:55.322Z,54.80
2019-03-20T14:50:30.535Z,54.80
2019-03-20T14:52:58.896Z,54.70
2019-03-20T14:55:27.170Z,54.70
2019-03-20T14:57:57.122Z,54.70
2019-03-20T15:00:27.748Z,54.70
2019-03-20T15:02:56.134Z,54.70
2019-03-20T15:05:24.372Z,55.00
2019-03-20T15:07:52.632Z,55.10
2019-03-20T15:10:25.722Z,55.20
2019-03-20T15:12:54.416Z,55.10
2019-03-20T15:15:31.489Z,55.10
2019-03-20T15:17:59.737Z,55.00
2019-03-20T15:20:27.992Z,54.90
2019-03-20T15:22:56.437Z,54.70
2019-03-20T15:25:24.727Z,54.50
2019-03-20T15:27:52.994Z,54.40
2019-03-20T15:30:26.023Z,54.70
2019-03-20T15:32:54.343Z,54.60
2019-03-20T15:35:22.585Z,54.50
2019-03-20T15:37:50.846Z,54.60
2019-03-20T15:40:29.395Z,54.50
2019-03-20T15:42:57.755Z,54.60
2019-03-20T15:45:26.006Z,54.70
2019-03-20T15:47:54.248Z,54.50
2019-03-20T15:50:25.002Z,54.60
2019-03-20T15:52:53.253Z,54.50
2019-03-20T15:55:30.249Z,54.40
2019-03-20T15:57:58.769Z,54.40
2019-03-20T16:00:27.028Z,54.50
2019-03-20T16:03:06.968Z,54.60
2019-03-20T16:05:35.225Z,54.20
2019-03-20T16:08:04.450Z,54.20
2019-03-20T16:10:32.688Z,54.10
2019-03-20T16:13:00.942Z,54.10
2019-03-20T16:15:29.179Z,54.00
2019-03-20T16:17:57.709Z,54.00
2019-03-20T16:20:26.021Z,54.00
2019-03-20T16:22:54.268Z,54.10
2019-03-20T16:25:23.853Z,54.00
2019-03-20T16:27:52.107Z,54.00
2019-03-20T16:30:27.669Z,54.20
2019-03-20T16:32:56.579Z,54.10
2019-03-20T16:35:25.021Z,54.10
2019-03-20T16:37:53.260Z,54.20
2019-03-20T16:40:27.073Z,54.20
2019-03-20T16:42:55.324Z,54.10
2019-03-20T16:45:28.444Z,54.00
2019-03-20T16:47:56.685Z,54.10
2019-03-20T16:50:24.921Z,54.10
2019-03-20T16:52:53.330Z,54.30
2019-03-20T16:55:21.604Z,54.10
2019-03-20T16:57:50.164Z,54.00
2019-03-20T17:00:32.693Z,54.10
2019-03-20T17:03:01.194Z,54.20
2019-03-20T17:05:30.376Z,54.10
2019-03-20T17:08:00.245Z,53.70
2019-03-20T17:10:39.710Z,54.30
2019-03-20T17:13:07.949Z,54.30
2019-03-20T17:15:41.325Z,54.30
2019-03-20T17:18:09.585Z,54.40
2019-03-20T17:20:37.869Z,54.40
2019-03-20T17:23:07.759Z,54.40
2019-03-20T17:25:36.727Z,54.40
2019-03-20T17:28:05.994Z,54.40
2019-03-20T17:30:37.489Z,54.50
2019-03-20T17:33:06.713Z,54.30
2019-03-20T17:35:35.020Z,54.40
2019-03-20T17:38:03.271Z,54.40
2019-03-20T17:40:31.538Z,54.40
2019-03-20T17:42:59.782Z,54.50
2019-03-20T17:45:28.961Z,54.50
2019-03-20T17:47:57.217Z,54.50
2019-03-20T17:50:34.867Z,54.50
2019-03-20T17:53:03.377Z,54.50
2019-03-20T17:55:31.631Z,54.50
2019-03-20T17:57:59.875Z,54.50
2019-03-20T18:00:40.583Z,54.50
2019-03-20T18:03:08.867Z,54.50
2019-03-20T18:05:37.146Z,54.60
2019-03-20T18:08:06.531Z,54.50
2019-03-20T18:10:34.775Z,54.60
2019-03-20T18:13:03.036Z,54.60
2019-03-20T18:15:31.406Z,54.60
2019-03-20T18:17:59.629Z,54.70
2019-03-20T18:20:27.868Z,54.70
2019-03-20T18:22:56.129Z,54.80
2019-03-20T18:25:24.381Z,54.80
2019-03-20T18:27:53.130Z,54.80
2019-03-20T18:30:25.592Z,54.90
2019-03-20T18:32:53.831Z,54.90
2019-03-20T18:35:22.058Z,54.80
2019-03-20T18:37:52.412Z,54.90
2019-03-20T18:40:24.742Z,54.80
2019-03-20T18:42:53.163Z,54.80
2019-03-20T18:45:22.465Z,54.90
2019-03-20T18:47:50.785Z,55.10
2019-03-20T18:50:22.778Z,55.00
2019-03-20T18:52:51.110Z,55.00
2019-03-20T18:55:19.799Z,55.10
2019-03-20T18:57:48.191Z,55.00
2019-03-20T19:00:30.764Z,55.10
2019-03-20T19:03:02.559Z,55.10
2019-03-20T19:05:39.972Z,55.10
2019-03-20T19:08:08.301Z,55.20
2019-03-20T19:10:36.617Z,55.20
2019-03-20T19:13:05.041Z,55.30
2019-03-20T19:15:33.287Z,55.30
2019-03-20T19:18:01.691Z,55.30
2019-03-20T19:20:29.935Z,55.40
2019-03-20T19:22:58.455Z,55.40
2019-03-20T19:25:26.690Z,55.50
2019-03-20T19:27:55.962Z,55.40
2019-03-20T19:30:26.115Z,55.40
2019-03-20T19:32:54.363Z,55.60
2019-03-20T19:35:22.601Z,55.50
2019-03-20T19:37:50.844Z,55.70
2019-03-20T19:40:20.116Z,55.60
2019-03-20T19:42:49.998Z,55.60
2019-03-20T19:45:18.457Z,55.80
2019-03-20T19:47:46.689Z,55.70
2019-03-20T19:50:19.948Z,55.70
2019-03-20T19:52:48.189Z,55.70
2019-03-20T19:55:16.849Z,55.70
2019-03-20T19:57:45.612Z,55.80
2019-03-20T20:00:16.605Z,55.90
2019-03-20T20:02:44.850Z,55.90
2019-03-20T20:05:15.931Z,55.80
2019-03-20T20:07:44.121Z,55.90
2019-03-20T20:10:17.132Z,56.00
2019-03-20T20:12:45.410Z,56.00
2019-03-20T20:15:22.827Z,55.90
2019-03-20T20:17:51.073Z,56.00
2019-03-20T20:20:24.289Z,56.10
2019-03-20T20:22:52.520Z,56.80
2019-03-20T20:25:20.755Z,56.20
2019-03-20T20:27:49.019Z,56.20
2019-03-20T20:30:19.252Z,56.20
2019-03-20T20:32:47.635Z,56.30
2019-03-20T20:35:16.726Z,56.40
2019-03-20T20:37:45.793Z,56.20
2019-03-20T20:40:22.513Z,56.30
2019-03-20T20:42:50.765Z,56.40
2019-03-20T20:45:19.119Z,56.40
2019-03-20T20:47:47.404Z,56.40
2019-03-20T20:50:16.533Z,56.40
2019-03-20T20:52:45.200Z,56.50
2019-03-20T20:55:20.840Z,56.50
2019-03-20T20:57:49.087Z,56.50
2019-03-20T21:00:25.166Z,56.40
2019-03-20T21:02:53.479Z,56.60
2019-03-20T21:05:21.751Z,56.50
2019-03-20T21:07:49.985Z,56.30
2019-03-20T21:10:25.553Z,56.40
2019-03-20T21:12:56.710Z,56.50
2019-03-20T21:15:44.366Z,56.50
2019-03-20T21:18:15.898Z,56.50
2019-03-20T21:20:48.525Z,56.50
2019-03-20T21:23:40.937Z,56.50
2019-03-20T21:26:20.865Z,56.70
2019-03-20T21:29:11.801Z,57.30
2019-03-20T21:32:00.050Z,56.60
2019-03-20T21:34:56.135Z,56.60
2019-03-20T21:37:45.640Z,56.70
2019-03-20T21:40:15.332Z,56.50
2019-03-20T21:43:19.831Z,56.70
2019-03-20T21:45:59.825Z,56.80
2019-03-20T21:48:28.330Z,56.90
2019-03-20T21:51:03.004Z,56.80
2019-03-20T21:53:43.714Z,56.90
2019-03-20T21:56:21.214Z,57.00
2019-03-20T21:58:58.543Z,57.00
2019-03-20T22:01:32.680Z,57.00
2019-03-20T22:04:00.898Z,57.00
2019-03-20T22:06:38.162Z,57.10
2019-03-20T22:09:08.636Z,57.10
2019-03-20T22:11:40.118Z,57.10
2019-03-20T22:14:11.275Z,57.10
2019-03-20T22:17:14.896Z,57.10
2019-03-20T22:19:52.375Z,57.10
2019-03-20T22:22:51.325Z,57.00
2019-03-20T22:25:22.873Z,57.00
2019-03-20T22:28:10.907Z,57.10
2019-03-20T22:30:39.160Z,57.10
2019-03-20T22:33:45.232Z,57.20
2019-03-20T22:36:13.469Z,57.30
2019-03-20T22:39:09.053Z,57.00
2019-03-20T22:41:48.843Z,57.30
2019-03-20T22:44:17.085Z,57.20
2019-03-20T22:46:56.888Z,57.30
2019-03-20T22:49:45.173Z,57.30
2019-03-20T22:52:50.091Z,57.40
2019-03-20T22:55:29.978Z,57.40
2019-03-20T22:58:20.958Z,57.20
2019-03-20T23:00:55.431Z,57.40
2019-03-20T23:03:36.262Z,57.50
2019-03-20T23:06:05.876Z,57.60
2019-03-20T23:08:34.118Z,57.40
2019-03-20T23:11:02.373Z,57.60
2019-03-20T23:13:40.980Z,57.70
2019-03-20T23:16:00.581Z,57.70
2019-03-20T23:18:29.201Z,57.70
2019-03-20T23:20:57.453Z,57.80
2019-03-20T23:23:25.696Z,57.70
2019-03-20T23:25:53.973Z,57.60
2019-03-20T23:28:22.281Z,57.70
2019-03-20T23:30:51.749Z,57.70
2019-03-20T23:33:23.174Z,57.80
2019-03-20T23:35:51.435Z,57.90
2019-03-20T23:38:19.662Z,57.70
2019-03-20T23:40:47.994Z,57.90
2019-03-20T23:43:16.303Z,58.00
2019-03-20T23:45:44.549Z,58.10
2019-03-20T23:48:21.816Z,58.00
2019-03-20T23:50:53.397Z,58.10
2019-03-20T23:53:21.640Z,58.10
2019-03-20T23:55:49.891Z,58.10
2019-03-20T23:58:18.138Z,58.20
